sensor_id;sensor_type;location;lat;lon;timestamp;temperature;humidity
8093;DHT22;4089;52.420;13.334;2024-01-16T00:02:21;0.90;99.90
8093;DHT22;4089;52.420;13.334;2024-01-16T00:04:48;0.80;99.90
8093;DHT22;4089;52.420;13.334;2024-01-16T00:07:15;0.70;99.90
8093;DHT22;4089;52.420;13.334;2024-01-16T00:09:42;0.60;99.90
8093;DHT22;4089;52.420;13.334;2024-01-16T00:12:08;0.50;99.90
8093;DHT22;4089;52.420;13.334;2024-01-16T00:14:36;0.60;99.90
8093;DHT22;4089;52.420;13.334;2024-01-16T00:17:03;0.40;99.90
8093;DHT22;4089;52.420;13.334;2024-01-16T00:19:30;0.50;99.90
8093;DHT22;4089;52.420;13.334;2024-01-16T00:21:57;0.50;99.90
8093;DHT22;4089;52.420;13.334;2024-01-16T00:24:24;0.50;99.90
8093;DHT22;4089;52.420;13.334;2024-01-16T00:26:51;0.50;99.90
8093;DHT22;4089;52.420;13.334;2024-01-16T00:29:18;0.40;99.90
8093;DHT22;4089;52.420;13.334;2024-01-16T00:31:45;0.40;99.90
8093;DHT22;4089;52.420;13.334;2024-01-16T00:34:11;0.50;99.90
8093;DHT22;4089;52.420;13.334;2024-01-16T00:36:38;0.50;99.90
8093;DHT22;4089;52.420;13.334;2024-01-16T00:39:05;0.50;99.90
8093;DHT22;4089;52.420;13.334;2024-01-16T00:41:33;0.40;99.90
8093;DHT22;4089;52.420;13.334;2024-01-16T00:44:00;0.40;99.90
8093;DHT22;4089;52.420;13.334;2024-01-16T00:46:27;0.40;99.90
8093;DHT22;4089;52.420;13.334;2024-01-16T00:48:54;0.50;99.90
8093;DHT22;4089;52.420;13.334;2024-01-16T00:51:21;0.50;99.90
8093;DHT22;4089;52.420;13.334;2024-01-16T00:53:48;0.50;99.90
8093;DHT22;4089;52.420;13.334;2024-01-16T00:56:15;0.60;99.90
8093;DHT22;4089;52.420;13.334;2024-01-16T00:58:41;0.50;99.90
8093;DHT22;4089;52.420;13.334;2024-01-16T01:01:08;0.50;99.90
8093;DHT22;4089;52.420;13.334;2024-01-16T01:03:35;0.30;99.90
8093;DHT22;4089;52.420;13.334;2024-01-16T01:06:02;0.10;99.90
8093;DHT22;4089;52.420;13.334;2024-01-16T01:08:29;0.00;99.90
8093;DHT22;4089;52.420;13.334;2024-01-16T01:10:56;0.10;99.90
8093;DHT22;4089;52.420;13.334;2024-01-16T01:13:23;-0.10;99.90
8093;DHT22;4089;52.420;13.334;2024-01-16T01:15:52;-0.20;99.90
8093;DHT22;4089;52.420;13.334;2024-01-16T01:18:18;-0.30;99.90
8093;DHT22;4089;52.420;13.334;2024-01-16T01:20:45;-0.40;99.90
8093;DHT22;4089;52.420;13.334;2024-01-16T01:23:12;-0.50;99.90
8093;DHT22;4089;52.420;13.334;2024-01-16T01:25:39;-0.60;99.90
8093;DHT22;4089;52.420;13.334;2024-01-16T01:28:06;-0.60;99.90
8093;DHT22;4089;52.420;13.334;2024-01-16T01:30:33;-0.50;99.90
8093;DHT22;4089;52.420;13.334;2024-01-16T01:33:00;-0.40;99.90
8093;DHT22;4089;52.420;13.334;2024-01-16T01:35:27;-0.50;99.90
8093;DHT22;4089;52.420;13.334;2024-01-16T01:37:54;-0.50;99.90
8093;DHT22;4089;52.420;13.334;2024-01-16T01:40:21;-0.70;99.90
8093;DHT22;4089;52.420;13.334;2024-01-16T01:42:48;-0.90;99.90
8093;DHT22;4089;52.420;13.334;2024-01-16T01:45:14;-1.00;99.90
8093;DHT22;4089;52.420;13.334;2024-01-16T01:47:42;-1.00;99.90
8093;DHT22;4089;52.420;13.334;2024-01-16T01:50:10;-0.90;99.90
8093;DHT22;4089;52.420;13.334;2024-01-16T01:52:39;-1.10;99.90
8093;DHT22;4089;52.420;13.334;2024-01-16T01:55:11;-1.20;99.90
8093;DHT22;4089;52.420;13.334;2024-01-16T01:57:39;-1.20;99.90
8093;DHT22;4089;52.420;13.334;2024-01-16T02:00:07;-1.20;99.90
8093;DHT22;4089;52.420;13.334;2024-01-16T02:02:34;-1.10;99.90
8093;DHT22;4089;52.420;13.334;2024-01-16T02:05:01;-1.20;99.90
8093;DHT22;4089;52.420;13.334;2024-01-16T02:07:28;-1.20;99.90
8093;DHT22;4089;52.420;13.334;2024-01-16T02:09:55;-1.10;99.90
8093;DHT22;4089;52.420;13.334;2024-01-16T02:12:22;-1.10;99.90
8093;DHT22;4089;52.420;13.334;2024-01-16T02:14:52;-1.20;99.90
8093;DHT22;4089;52.420;13.334;2024-01-16T02:17:19;-1.20;99.90
8093;DHT22;4089;52.420;13.334;2024-01-16T02:19:45;-1.10;99.90
8093;DHT22;4089;52.420;13.334;2024-01-16T02:22:16;-1.10;99.90
8093;DHT22;4089;52.420;13.334;2024-01-16T02:24:44;-1.00;99.90
8093;DHT22;4089;52.420;13.334;2024-01-16T02:27:11;-1.00;99.90
8093;DHT22;4089;52.420;13.334;2024-01-16T02:29:42;-0.90;99.90
8093;DHT22;4089;52.420;13.334;2024-01-16T02:32:12;-0.90;99.90
8093;DHT22;4089;52.420;13.334;2024-01-16T02:34:40;-0.80;99.90
8093;DHT22;4089;52.420;13.334;2024-01-16T02:37:08;-0.80;99.90
8093;DHT22;4089;52.420;13.334;2024-01-16T02:39:35;-0.70;99.90
8093;DHT22;4089;52.420;13.334;2024-01-16T02:42:01;-0.70;99.90
8093;DHT22;4089;52.420;13.334;2024-01-16T02:44:28;-0.70;99.90
8093;DHT22;4089;52.420;13.334;2024-01-16T02:46:55;-0.70;99.90
8093;DHT22;4089;52.420;13.334;2024-01-16T02:49:22;-0.70;99.90
8093;DHT22;4089;52.420;13.334;2024-01-16T02:51:49;-0.60;99.90
8093;DHT22;4089;52.420;13.334;2024-01-16T02:54:16;-0.70;99.90
8093;DHT22;4089;52.420;13.334;2024-01-16T02:56:42;-0.70;99.90
8093;DHT22;4089;52.420;13.334;2024-01-16T02:59:09;-0.50;99.90
8093;DHT22;4089;52.420;13.334;2024-01-16T03:01:36;-0.40;99.90
8093;DHT22;4089;52.420;13.334;2024-01-16T03:04:03;-0.40;99.90
8093;DHT22;4089;52.420;13.334;2024-01-16T03:06:30;-0.40;99.90
8093;DHT22;4089;52.420;13.334;2024-01-16T03:08:57;-0.40;99.90
8093;DHT22;4089;52.420;13.334;2024-01-16T03:11:25;-0.40;99.90
8093;DHT22;4089;52.420;13.334;2024-01-16T03:13:52;-0.50;99.90
8093;DHT22;4089;52.420;13.334;2024-01-16T03:16:20;-0.50;99.90
8093;DHT22;4089;52.420;13.334;2024-01-16T03:18:47;-0.50;99.90
8093;DHT22;4089;52.420;13.334;2024-01-16T03:21:14;-0.60;99.90
8093;DHT22;4089;52.420;13.334;2024-01-16T03:23:41;-0.60;99.90
8093;DHT22;4089;52.420;13.334;2024-01-16T03:26:13;-0.60;99.90
8093;DHT22;4089;52.420;13.334;2024-01-16T03:28:41;-0.60;99.90
8093;DHT22;4089;52.420;13.334;2024-01-16T03:31:08;-0.60;99.90
8093;DHT22;4089;52.420;13.334;2024-01-16T03:33:34;-0.70;99.90
8093;DHT22;4089;52.420;13.334;2024-01-16T03:36:02;-0.80;99.90
8093;DHT22;4089;52.420;13.334;2024-01-16T03:38:30;-0.90;99.90
8093;DHT22;4089;52.420;13.334;2024-01-16T03:40:57;-0.80;99.90
8093;DHT22;4089;52.420;13.334;2024-01-16T03:43:24;-0.80;99.90
8093;DHT22;4089;52.420;13.334;2024-01-16T03:45:51;-0.70;99.90
8093;DHT22;4089;52.420;13.334;2024-01-16T03:48:17;-0.80;99.90
8093;DHT22;4089;52.420;13.334;2024-01-16T03:50:44;-0.70;99.90
8093;DHT22;4089;52.420;13.334;2024-01-16T03:53:12;-0.70;99.90
8093;DHT22;4089;52.420;13.334;2024-01-16T03:55:39;-0.70;99.90
8093;DHT22;4089;52.420;13.334;2024-01-16T03:58:06;-0.70;99.90
8093;DHT22;4089;52.420;13.334;2024-01-16T04:00:37;-0.60;99.90
8093;DHT22;4089;52.420;13.334;2024-01-16T04:03:04;-0.70;99.90
8093;DHT22;4089;52.420;13.334;2024-01-16T04:05:30;-0.70;99.90
8093;DHT22;4089;52.420;13.334;2024-01-16T04:07:57;-0.70;99.90
8093;DHT22;4089;52.420;13.334;2024-01-16T04:10:24;-0.80;99.90
8093;DHT22;4089;52.420;13.334;2024-01-16T04:12:51;-0.90;99.90
8093;DHT22;4089;52.420;13.334;2024-01-16T04:15:18;-0.80;99.90
8093;DHT22;4089;52.420;13.334;2024-01-16T04:17:48;-0.80;99.90
8093;DHT22;4089;52.420;13.334;2024-01-16T04:20:15;-0.80;99.90
8093;DHT22;4089;52.420;13.334;2024-01-16T04:22:43;-0.90;99.90
8093;DHT22;4089;52.420;13.334;2024-01-16T04:25:09;-0.90;99.90
8093;DHT22;4089;52.420;13.334;2024-01-16T04:27:36;-0.90;99.90
8093;DHT22;4089;52.420;13.334;2024-01-16T04:30:03;-0.90;99.90
8093;DHT22;4089;52.420;13.334;2024-01-16T04:32:30;-0.90;99.90
8093;DHT22;4089;52.420;13.334;2024-01-16T04:34:57;-0.90;99.90
8093;DHT22;4089;52.420;13.334;2024-01-16T04:37:24;-1.00;99.90
8093;DHT22;4089;52.420;13.334;2024-01-16T04:39:51;-1.00;99.90
8093;DHT22;4089;52.420;13.334;2024-01-16T04:42:18;-1.10;99.90
8093;DHT22;4089;52.420;13.334;2024-01-16T04:44:45;-1.10;99.90
8093;DHT22;4089;52.420;13.334;2024-01-16T04:47:12;-1.10;99.90
8093;DHT22;4089;52.420;13.334;2024-01-16T04:49:41;-1.10;99.90
8093;DHT22;4089;52.420;13.334;2024-01-16T04:52:08;-1.00;99.90
8093;DHT22;4089;52.420;13.334;2024-01-16T04:54:35;-1.00;99.90
8093;DHT22;4089;52.420;13.334;2024-01-16T04:57:02;-1.00;99.90
8093;DHT22;4089;52.420;13.334;2024-01-16T04:59:29;-1.10;99.90
8093;DHT22;4089;52.420;13.334;2024-01-16T05:01:57;-1.00;99.90
8093;DHT22;4089;52.420;13.334;2024-01-16T05:04:24;-1.00;99.90
8093;DHT22;4089;52.420;13.334;2024-01-16T05:06:51;-1.00;99.90
8093;DHT22;4089;52.420;13.334;2024-01-16T05:09:21;-0.90;99.90
8093;DHT22;4089;52.420;13.334;2024-01-16T05:11:48;-0.90;99.90
8093;DHT22;4089;52.420;13.334;2024-01-16T05:14:15;-0.90;99.90
8093;DHT22;4089;52.420;13.334;2024-01-16T05:16:42;-0.90;99.90
8093;DHT22;4089;52.420;13.334;2024-01-16T05:19:09;-1.00;99.90
8093;DHT22;4089;52.420;13.334;2024-01-16T05:21:36;-1.00;99.90
8093;DHT22;4089;52.420;13.334;2024-01-16T05:24:03;-1.00;99.90
8093;DHT22;4089;52.420;13.334;2024-01-16T05:26:30;-1.00;99.90
8093;DHT22;4089;52.420;13.334;2024-01-16T05:28:57;-1.00;99.90
8093;DHT22;4089;52.420;13.334;2024-01-16T05:31:28;-1.00;99.90
8093;DHT22;4089;52.420;13.334;2024-01-16T05:33:54;-1.00;99.90
8093;DHT22;4089;52.420;13.334;2024-01-16T05:36:21;-1.00;99.90
8093;DHT22;4089;52.420;13.334;2024-01-16T05:38:48;-1.10;99.90
8093;DHT22;4089;52.420;13.334;2024-01-16T05:41:17;-1.10;99.90
8093;DHT22;4089;52.420;13.334;2024-01-16T05:43:44;-1.10;99.90
8093;DHT22;4089;52.420;13.334;2024-01-16T05:46:10;-1.20;99.90
8093;DHT22;4089;52.420;13.334;2024-01-16T05:48:37;-1.30;99.90
8093;DHT22;4089;52.420;13.334;2024-01-16T05:51:05;-1.30;99.90
8093;DHT22;4089;52.420;13.334;2024-01-16T05:53:31;-1.40;99.90
8093;DHT22;4089;52.420;13.334;2024-01-16T05:55:58;-1.40;99.90
8093;DHT22;4089;52.420;13.334;2024-01-16T05:58:25;-1.40;99.90
8093;DHT22;4089;52.420;13.334;2024-01-16T06:00:52;-1.40;99.90
8093;DHT22;4089;52.420;13.334;2024-01-16T06:03:19;-1.40;99.90
8093;DHT22;4089;52.420;13.334;2024-01-16T06:05:46;-1.50;99.90
8093;DHT22;4089;52.420;13.334;2024-01-16T06:08:15;-1.40;99.90
8093;DHT22;4089;52.420;13.334;2024-01-16T06:10:45;-1.30;99.90
8093;DHT22;4089;52.420;13.334;2024-01-16T06:13:14;-1.40;99.90
8093;DHT22;4089;52.420;13.334;2024-01-16T06:15:41;-1.40;99.90
8093;DHT22;4089;52.420;13.334;2024-01-16T06:18:07;-1.40;99.90
8093;DHT22;4089;52.420;13.334;2024-01-16T06:20:35;-1.40;99.90
8093;DHT22;4089;52.420;13.334;2024-01-16T06:23:02;-1.40;99.90
8093;DHT22;4089;52.420;13.334;2024-01-16T06:25:29;-1.50;99.90
8093;DHT22;4089;52.420;13.334;2024-01-16T06:27:56;-1.50;99.90
8093;DHT22;4089;52.420;13.334;2024-01-16T06:30:25;-1.50;99.90
8093;DHT22;4089;52.420;13.334;2024-01-16T06:32:52;-1.60;99.90
8093;DHT22;4089;52.420;13.334;2024-01-16T06:35:19;-1.50;99.90
8093;DHT22;4089;52.420;13.334;2024-01-16T06:37:46;-1.50;99.90
8093;DHT22;4089;52.420;13.334;2024-01-16T06:40:13;-1.40;99.90
8093;DHT22;4089;52.420;13.334;2024-01-16T06:42:40;-1.50;99.90
8093;DHT22;4089;52.420;13.334;2024-01-16T06:45:07;-1.60;99.90
8093;DHT22;4089;52.420;13.334;2024-01-16T06:47:34;-1.60;99.90
8093;DHT22;4089;52.420;13.334;2024-01-16T06:50:01;-1.50;99.90
8093;DHT22;4089;52.420;13.334;2024-01-16T06:52:27;-1.50;99.90
8093;DHT22;4089;52.420;13.334;2024-01-16T06:54:54;-1.40;99.90
8093;DHT22;4089;52.420;13.334;2024-01-16T06:57:21;-1.40;99.90
8093;DHT22;4089;52.420;13.334;2024-01-16T06:59:48;-1.40;99.90
8093;DHT22;4089;52.420;13.334;2024-01-16T07:02:16;-1.20;99.90
8093;DHT22;4089;52.420;13.334;2024-01-16T07:04:45;-1.30;99.90
8093;DHT22;4089;52.420;13.334;2024-01-16T07:07:12;-1.30;99.90
8093;DHT22;4089;52.420;13.334;2024-01-16T07:09:39;-1.30;99.90
8093;DHT22;4089;52.420;13.334;2024-01-16T07:12:06;-1.30;99.90
8093;DHT22;4089;52.420;13.334;2024-01-16T07:14:33;-1.20;99.90
8093;DHT22;4089;52.420;13.334;2024-01-16T07:17:00;-1.20;99.90
8093;DHT22;4089;52.420;13.334;2024-01-16T07:19:26;-1.10;99.90
8093;DHT22;4089;52.420;13.334;2024-01-16T07:21:53;-1.10;99.90
8093;DHT22;4089;52.420;13.334;2024-01-16T07:24:20;-1.00;99.90
8093;DHT22;4089;52.420;13.334;2024-01-16T07:26:47;-0.90;99.90
8093;DHT22;4089;52.420;13.334;2024-01-16T07:29:14;-1.00;99.90
8093;DHT22;4089;52.420;13.334;2024-01-16T07:31:41;-0.90;99.90
8093;DHT22;4089;52.420;13.334;2024-01-16T07:34:08;-0.80;99.90
8093;DHT22;4089;52.420;13.334;2024-01-16T07:36:36;-0.70;99.90
8093;DHT22;4089;52.420;13.334;2024-01-16T07:39:03;-0.60;99.90
8093;DHT22;4089;52.420;13.334;2024-01-16T07:41:30;-0.50;99.90
8093;DHT22;4089;52.420;13.334;2024-01-16T07:43:57;-0.50;99.90
8093;DHT22;4089;52.420;13.334;2024-01-16T07:46:24;-0.50;99.90
8093;DHT22;4089;52.420;13.334;2024-01-16T07:48:51;-0.40;99.90
8093;DHT22;4089;52.420;13.334;2024-01-16T07:51:18;-0.40;99.90
8093;DHT22;4089;52.420;13.334;2024-01-16T07:53:44;-0.30;99.90
8093;DHT22;4089;52.420;13.334;2024-01-16T07:56:11;-0.30;99.90
8093;DHT22;4089;52.420;13.334;2024-01-16T07:58:38;-0.30;99.90
8093;DHT22;4089;52.420;13.334;2024-01-16T08:01:06;-0.30;99.90
8093;DHT22;4089;52.420;13.334;2024-01-16T08:03:33;-0.30;99.90
8093;DHT22;4089;52.420;13.334;2024-01-16T08:06:00;-0.30;99.90
8093;DHT22;4089;52.420;13.334;2024-01-16T08:08:27;-0.30;99.90
8093;DHT22;4089;52.420;13.334;2024-01-16T08:10:55;-0.40;99.90
8093;DHT22;4089;52.420;13.334;2024-01-16T08:13:22;-0.40;99.90
8093;DHT22;4089;52.420;13.334;2024-01-16T08:15:49;-0.40;99.90
8093;DHT22;4089;52.420;13.334;2024-01-16T08:18:16;-0.40;99.90
8093;DHT22;4089;52.420;13.334;2024-01-16T08:20:44;-0.30;99.90
8093;DHT22;4089;52.420;13.334;2024-01-16T08:23:11;-0.30;99.90
8093;DHT22;4089;52.420;13.334;2024-01-16T08:25:39;-0.20;99.90
8093;DHT22;4089;52.420;13.334;2024-01-16T08:28:05;-0.10;99.90
8093;DHT22;4089;52.420;13.334;2024-01-16T08:30:32;-0.10;99.90
8093;DHT22;4089;52.420;13.334;2024-01-16T08:32:59;-0.10;99.90
8093;DHT22;4089;52.420;13.334;2024-01-16T08:35:26;-0.10;99.90
8093;DHT22;4089;52.420;13.334;2024-01-16T08:37:53;-0.10;99.90
8093;DHT22;4089;52.420;13.334;2024-01-16T08:40:20;-0.10;99.90
8093;DHT22;4089;52.420;13.334;2024-01-16T08:42:47;-0.10;99.90
8093;DHT22;4089;52.420;13.334;2024-01-16T08:45:21;-0.10;99.90
8093;DHT22;4089;52.420;13.334;2024-01-16T08:47:48;0.00;99.90
8093;DHT22;4089;52.420;13.334;2024-01-16T08:50:16;0.00;99.90
8093;DHT22;4089;52.420;13.334;2024-01-16T08:52:43;0.00;99.90
8093;DHT22;4089;52.420;13.334;2024-01-16T08:55:10;0.00;99.90
8093;DHT22;4089;52.420;13.334;2024-01-16T08:57:37;0.10;99.90
8093;DHT22;4089;52.420;13.334;2024-01-16T09:00:05;0.20;99.90
8093;DHT22;4089;52.420;13.334;2024-01-16T09:02:32;0.30;99.90
8093;DHT22;4089;52.420;13.334;2024-01-16T09:04:59;0.30;99.90
8093;DHT22;4089;52.420;13.334;2024-01-16T09:07:26;0.40;99.90
8093;DHT22;4089;52.420;13.334;2024-01-16T09:09:54;0.40;99.90
8093;DHT22;4089;52.420;13.334;2024-01-16T09:12:20;0.40;99.90
8093;DHT22;4089;52.420;13.334;2024-01-16T09:14:47;0.40;99.90
8093;DHT22;4089;52.420;13.334;2024-01-16T09:17:14;0.30;99.90
8093;DHT22;4089;52.420;13.334;2024-01-16T09:19:41;0.30;99.90
8093;DHT22;4089;52.420;13.334;2024-01-16T09:22:08;0.40;99.90
8093;DHT22;4089;52.420;13.334;2024-01-16T09:24:35;0.40;99.90
8093;DHT22;4089;52.420;13.334;2024-01-16T09:27:02;0.40;99.90
8093;DHT22;4089;52.420;13.334;2024-01-16T09:29:33;0.50;99.90
8093;DHT22;4089;52.420;13.334;2024-01-16T09:32:00;0.50;99.90
8093;DHT22;4089;52.420;13.334;2024-01-16T09:34:27;0.50;99.90
8093;DHT22;4089;52.420;13.334;2024-01-16T09:36:55;0.60;99.90
8093;DHT22;4089;52.420;13.334;2024-01-16T09:39:25;0.60;99.90
8093;DHT22;4089;52.420;13.334;2024-01-16T09:41:52;0.60;99.90
8093;DHT22;4089;52.420;13.334;2024-01-16T09:44:19;0.70;99.90
8093;DHT22;4089;52.420;13.334;2024-01-16T09:46:47;0.60;99.90
8093;DHT22;4089;52.420;13.334;2024-01-16T09:49:17;0.70;99.90
8093;DHT22;4089;52.420;13.334;2024-01-16T09:51:46;0.70;99.90
8093;DHT22;4089;52.420;13.334;2024-01-16T09:54:12;0.80;99.90
8093;DHT22;4089;52.420;13.334;2024-01-16T09:56:42;0.90;99.90
8093;DHT22;4089;52.420;13.334;2024-01-16T09:59:12;1.00;99.90
8093;DHT22;4089;52.420;13.334;2024-01-16T10:01:42;1.00;99.90
8093;DHT22;4089;52.420;13.334;2024-01-16T10:04:10;1.00;99.90
8093;DHT22;4089;52.420;13.334;2024-01-16T10:06:38;1.10;99.90
8093;DHT22;4089;52.420;13.334;2024-01-16T10:09:05;1.10;99.90
8093;DHT22;4089;52.420;13.334;2024-01-16T10:11:33;1.20;99.90
8093;DHT22;4089;52.420;13.334;2024-01-16T10:14:01;1.30;99.90
8093;DHT22;4089;52.420;13.334;2024-01-16T10:17:02;1.40;99.90
8093;DHT22;4089;52.420;13.334;2024-01-16T10:19:32;1.50;99.90
8093;DHT22;4089;52.420;13.334;2024-01-16T10:22:22;1.50;99.90
8093;DHT22;4089;52.420;13.334;2024-01-16T10:25:13;1.50;99.90
8093;DHT22;4089;52.420;13.334;2024-01-16T10:27:44;1.40;99.90
8093;DHT22;4089;52.420;13.334;2024-01-16T10:30:11;1.40;99.90
8093;DHT22;4089;52.420;13.334;2024-01-16T10:32:43;1.60;99.90
8093;DHT22;4089;52.420;13.334;2024-01-16T10:35:12;1.60;99.90
8093;DHT22;4089;52.420;13.334;2024-01-16T10:37:50;1.60;99.90
8093;DHT22;4089;52.420;13.334;2024-01-16T10:40:19;1.60;99.90
8093;DHT22;4089;52.420;13.334;2024-01-16T10:43:04;1.60;99.90
8093;DHT22;4089;52.420;13.334;2024-01-16T10:45:32;1.60;99.90
8093;DHT22;4089;52.420;13.334;2024-01-16T10:48:06;1.50;99.90
8093;DHT22;4089;52.420;13.334;2024-01-16T10:50:38;1.50;99.90
8093;DHT22;4089;52.420;13.334;2024-01-16T10:53:07;1.40;99.90
8093;DHT22;4089;52.420;13.334;2024-01-16T10:55:50;1.40;99.90
8093;DHT22;4089;52.420;13.334;2024-01-16T10:58:22;1.50;99.90
8093;DHT22;4089;52.420;13.334;2024-01-16T11:00:52;1.50;99.90
8093;DHT22;4089;52.420;13.334;2024-01-16T11:03:56;1.50;99.90
8093;DHT22;4089;52.420;13.334;2024-01-16T11:06:24;1.60;99.90
8093;DHT22;4089;52.420;13.334;2024-01-16T11:08:52;1.60;99.90
8093;DHT22;4089;52.420;13.334;2024-01-16T11:11:20;1.50;99.90
8093;DHT22;4089;52.420;13.334;2024-01-16T11:13:49;1.60;99.90
8093;DHT22;4089;52.420;13.334;2024-01-16T11:16:17;1.60;99.90
8093;DHT22;4089;52.420;13.334;2024-01-16T11:18:45;1.60;99.90
8093;DHT22;4089;52.420;13.334;2024-01-16T11:21:14;1.70;99.90
8093;DHT22;4089;52.420;13.334;2024-01-16T11:23:44;1.70;99.90
8093;DHT22;4089;52.420;13.334;2024-01-16T11:26:33;1.60;99.90
8093;DHT22;4089;52.420;13.334;2024-01-16T11:31:55;1.60;99.90
8093;DHT22;4089;52.420;13.334;2024-01-16T11:37:28;1.50;99.90
8093;DHT22;4089;52.420;13.334;2024-01-16T11:42:48;1.50;99.90
8093;DHT22;4089;52.420;13.334;2024-01-16T11:48:13;1.60;99.90
8093;DHT22;4089;52.420;13.334;2024-01-16T11:50:41;1.60;99.90
8093;DHT22;4089;52.420;13.334;2024-01-16T11:53:08;1.50;99.90
8093;DHT22;4089;52.420;13.334;2024-01-16T11:58:50;1.50;99.90
8093;DHT22;4089;52.420;13.334;2024-01-16T12:01:19;1.60;99.90
8093;DHT22;4089;52.420;13.334;2024-01-16T12:04:08;1.60;99.90
8093;DHT22;4089;52.420;13.334;2024-01-16T12:06:36;1.60;99.90
8093;DHT22;4089;52.420;13.334;2024-01-16T12:09:15;1.60;99.90
8093;DHT22;4089;52.420;13.334;2024-01-16T12:11:43;1.60;99.90
8093;DHT22;4089;52.420;13.334;2024-01-16T12:14:12;1.70;99.90
8093;DHT22;4089;52.420;13.334;2024-01-16T12:16:44;1.70;99.90
8093;DHT22;4089;52.420;13.334;2024-01-16T12:19:10;1.80;99.90
8093;DHT22;4089;52.420;13.334;2024-01-16T12:21:40;1.70;99.90
8093;DHT22;4089;52.420;13.334;2024-01-16T12:24:08;1.80;99.90
8093;DHT22;4089;52.420;13.334;2024-01-16T12:26:39;1.80;99.90
8093;DHT22;4089;52.420;13.334;2024-01-16T12:29:06;1.80;99.90
8093;DHT22;4089;52.420;13.334;2024-01-16T12:31:32;1.90;99.90
8093;DHT22;4089;52.420;13.334;2024-01-16T12:36:36;1.80;99.90
8093;DHT22;4089;52.420;13.334;2024-01-16T12:39:04;1.90;99.90
8093;DHT22;4089;52.420;13.334;2024-01-16T12:41:43;1.80;99.90
8093;DHT22;4089;52.420;13.334;2024-01-16T12:44:10;1.70;99.90
8093;DHT22;4089;52.420;13.334;2024-01-16T12:46:54;1.80;99.90
8093;DHT22;4089;52.420;13.334;2024-01-16T12:49:22;1.80;99.90
8093;DHT22;4089;52.420;13.334;2024-01-16T12:51:50;1.80;99.90
8093;DHT22;4089;52.420;13.334;2024-01-16T12:54:18;1.90;99.90
8093;DHT22;4089;52.420;13.334;2024-01-16T12:56:58;1.80;99.90
8093;DHT22;4089;52.420;13.334;2024-01-16T12:59:27;1.90;99.90
8093;DHT22;4089;52.420;13.334;2024-01-16T13:01:56;2.00;99.90
8093;DHT22;4089;52.420;13.334;2024-01-16T13:04:23;2.00;99.90
8093;DHT22;4089;52.420;13.334;2024-01-16T13:06:50;1.80;99.90
8093;DHT22;4089;52.420;13.334;2024-01-16T13:09:17;1.70;99.90
8093;DHT22;4089;52.420;13.334;2024-01-16T13:11:55;1.70;99.90
8093;DHT22;4089;52.420;13.334;2024-01-16T13:14:23;1.70;99.90
8093;DHT22;4089;52.420;13.334;2024-01-16T13:16:51;1.70;99.90
8093;DHT22;4089;52.420;13.334;2024-01-16T13:19:22;1.60;99.90
8093;DHT22;4089;52.420;13.334;2024-01-16T13:21:50;1.70;99.90
8093;DHT22;4089;52.420;13.334;2024-01-16T13:24:17;1.60;99.90
8093;DHT22;4089;52.420;13.334;2024-01-16T13:26:46;1.70;99.90
8093;DHT22;4089;52.420;13.334;2024-01-16T13:29:13;1.60;99.90
8093;DHT22;4089;52.420;13.334;2024-01-16T13:31:42;1.70;99.90
8093;DHT22;4089;52.420;13.334;2024-01-16T13:34:10;1.70;99.90
8093;DHT22;4089;52.420;13.334;2024-01-16T13:36:37;1.60;99.90
8093;DHT22;4089;52.420;13.334;2024-01-16T13:39:24;1.70;99.90
8093;DHT22;4089;52.420;13.334;2024-01-16T13:41:52;1.70;99.90
8093;DHT22;4089;52.420;13.334;2024-01-16T13:44:19;1.60;99.90
8093;DHT22;4089;52.420;13.334;2024-01-16T13:46:46;1.60;99.90
8093;DHT22;4089;52.420;13.334;2024-01-16T13:49:15;1.60;99.90
8093;DHT22;4089;52.420;13.334;2024-01-16T13:51:44;1.60;99.90
8093;DHT22;4089;52.420;13.334;2024-01-16T13:54:11;1.50;99.90
8093;DHT22;4089;52.420;13.334;2024-01-16T13:56:38;1.50;99.90
8093;DHT22;4089;52.420;13.334;2024-01-16T13:59:25;1.60;99.90
8093;DHT22;4089;52.420;13.334;2024-01-16T14:01:52;1.60;99.90
8093;DHT22;4089;52.420;13.334;2024-01-16T14:04:19;1.60;99.90
8093;DHT22;4089;52.420;13.334;2024-01-16T14:06:47;1.70;99.90
8093;DHT22;4089;52.420;13.334;2024-01-16T14:09:35;1.70;99.90
8093;DHT22;4089;52.420;13.334;2024-01-16T14:12:02;1.70;99.90
8093;DHT22;4089;52.420;13.334;2024-01-16T14:14:29;1.80;99.90
8093;DHT22;4089;52.420;13.334;2024-01-16T14:16:57;1.80;99.90
8093;DHT22;4089;52.420;13.334;2024-01-16T14:19:28;1.80;99.90
8093;DHT22;4089;52.420;13.334;2024-01-16T14:21:57;1.90;99.90
8093;DHT22;4089;52.420;13.334;2024-01-16T14:24:24;2.00;99.90
8093;DHT22;4089;52.420;13.334;2024-01-16T14:26:51;1.90;99.90
8093;DHT22;4089;52.420;13.334;2024-01-16T14:29:18;1.80;99.90
8093;DHT22;4089;52.420;13.334;2024-01-16T14:31:45;1.70;99.90
8093;DHT22;4089;52.420;13.334;2024-01-16T14:34:16;1.60;99.90
8093;DHT22;4089;52.420;13.334;2024-01-16T14:36:46;1.70;99.90
8093;DHT22;4089;52.420;13.334;2024-01-16T14:39:13;1.60;99.90
8093;DHT22;4089;52.420;13.334;2024-01-16T14:41:44;1.60;99.90
8093;DHT22;4089;52.420;13.334;2024-01-16T14:44:13;1.70;99.90
8093;DHT22;4089;52.420;13.334;2024-01-16T14:46:44;1.60;99.90
8093;DHT22;4089;52.420;13.334;2024-01-16T14:49:17;1.60;99.90
8093;DHT22;4089;52.420;13.334;2024-01-16T14:51:44;1.40;99.90
8093;DHT22;4089;52.420;13.334;2024-01-16T14:54:11;1.40;99.90
8093;DHT22;4089;52.420;13.334;2024-01-16T14:56:38;1.40;99.90
8093;DHT22;4089;52.420;13.334;2024-01-16T14:59:05;1.40;99.90
8093;DHT22;4089;52.420;13.334;2024-01-16T15:01:32;1.20;99.90
8093;DHT22;4089;52.420;13.334;2024-01-16T15:03:59;1.10;99.90
8093;DHT22;4089;52.420;13.334;2024-01-16T15:06:26;1.10;99.90
8093;DHT22;4089;52.420;13.334;2024-01-16T15:08:54;1.10;99.90
8093;DHT22;4089;52.420;13.334;2024-01-16T15:11:21;1.00;99.90
8093;DHT22;4089;52.420;13.334;2024-01-16T15:13:49;1.00;99.90
8093;DHT22;4089;52.420;13.334;2024-01-16T15:16:16;1.00;99.90
8093;DHT22;4089;52.420;13.334;2024-01-16T15:18:45;1.00;99.90
8093;DHT22;4089;52.420;13.334;2024-01-16T15:21:12;1.00;99.90
8093;DHT22;4089;52.420;13.334;2024-01-16T15:23:39;1.10;99.90
8093;DHT22;4089;52.420;13.334;2024-01-16T15:26:06;1.00;99.90
8093;DHT22;4089;52.420;13.334;2024-01-16T15:28:33;1.00;99.90
8093;DHT22;4089;52.420;13.334;2024-01-16T15:31:00;0.90;99.90
8093;DHT22;4089;52.420;13.334;2024-01-16T15:33:34;1.00;99.90
8093;DHT22;4089;52.420;13.334;2024-01-16T15:36:03;1.00;99.90
8093;DHT22;4089;52.420;13.334;2024-01-16T15:38:30;1.00;99.90
8093;DHT22;4089;52.420;13.334;2024-01-16T15:40:58;1.00;99.90
8093;DHT22;4089;52.420;13.334;2024-01-16T15:43:25;1.00;99.90
8093;DHT22;4089;52.420;13.334;2024-01-16T15:45:52;1.10;99.90
8093;DHT22;4089;52.420;13.334;2024-01-16T15:48:18;1.10;99.90
8093;DHT22;4089;52.420;13.334;2024-01-16T15:50:46;1.10;99.90
8093;DHT22;4089;52.420;13.334;2024-01-16T15:53:13;1.00;99.90
8093;DHT22;4089;52.420;13.334;2024-01-16T15:55:43;1.00;99.90
8093;DHT22;4089;52.420;13.334;2024-01-16T15:58:10;1.00;99.90
8093;DHT22;4089;52.420;13.334;2024-01-16T16:00:37;1.10;99.90
8093;DHT22;4089;52.420;13.334;2024-01-16T16:03:04;1.00;99.90
8093;DHT22;4089;52.420;13.334;2024-01-16T16:05:33;1.00;99.90
8093;DHT22;4089;52.420;13.334;2024-01-16T16:08:00;1.00;99.90
8093;DHT22;4089;52.420;13.334;2024-01-16T16:10:27;1.10;99.90
8093;DHT22;4089;52.420;13.334;2024-01-16T16:12:54;1.10;99.90
8093;DHT22;4089;52.420;13.334;2024-01-16T16:15:21;1.20;99.90
8093;DHT22;4089;52.420;13.334;2024-01-16T16:17:48;1.30;99.90
8093;DHT22;4089;52.420;13.334;2024-01-16T16:20:16;1.20;99.90